createdAt,value
2023-05-17T00:02:56.670Z,9.75
2023-05-17T00:05:59.084Z,9.77
2023-05-17T00:09:01.628Z,8.95
2023-05-17T00:12:04.248Z,9.60
2023-05-17T00:15:07.294Z,10.00
2023-05-17T00:18:09.849Z,11.07
2023-05-17T00:21:12.353Z,10.13
2023-05-17T00:24:14.804Z,14.15
2023-05-17T00:27:17.311Z,10.05
2023-05-17T00:30:20.530Z,10.45
2023-05-17T00:33:23.196Z,8.65
2023-05-17T00:36:25.923Z,9.93
2023-05-17T00:39:28.288Z,8.40
2023-05-17T00:42:31.003Z,9.73
2023-05-17T00:45:33.556Z,7.63
2023-05-17T00:48:36.154Z,7.32
2023-05-17T00:51:38.720Z,10.32
2023-05-17T00:54:41.302Z,10.57
2023-05-17T00:57:43.682Z,9.18
2023-05-17T01:00:46.528Z,8.38
2023-05-17T01:03:50.262Z,7.30
2023-05-17T01:06:52.923Z,8.73
2023-05-17T01:09:55.534Z,9.25
2023-05-17T01:13:23.943Z,7.45
2023-05-17T01:16:30.978Z,7.57
2023-05-17T01:19:45.497Z,6.38
2023-05-17T01:23:06.324Z,6.57
2023-05-17T01:26:19.241Z,6.88
2023-05-17T01:29:27.745Z,7.53
2023-05-17T01:32:31.033Z,8.50
2023-05-17T01:35:33.507Z,6.72
2023-05-17T01:38:36.019Z,6.72
2023-05-17T01:41:42.469Z,7.30
2023-05-17T01:44:51.139Z,7.32
2023-05-17T01:48:15.072Z,8.30
2023-05-17T01:51:20.437Z,8.37
2023-05-17T01:54:28.951Z,11.63
2023-05-17T01:57:34.730Z,12.02
2023-05-17T02:00:37.214Z,10.65
2023-05-17T02:03:39.722Z,9.13
2023-05-17T02:06:42.125Z,10.02
2023-05-17T02:09:44.499Z,8.65
2023-05-17T02:12:46.970Z,9.75
2023-05-17T02:15:49.465Z,8.02
2023-05-17T02:18:52.002Z,8.43
2023-05-17T02:21:54.359Z,9.45
2023-05-17T02:24:58.232Z,8.95
2023-05-17T02:28:00.734Z,9.25
2023-05-17T02:31:03.515Z,9.02
2023-05-17T02:34:05.989Z,8.63
2023-05-17T02:37:08.508Z,8.20
2023-05-17T02:40:12.745Z,8.18
2023-05-17T02:43:15.279Z,8.38
2023-05-17T02:46:17.678Z,7.50
2023-05-17T02:49:20.103Z,7.47
2023-05-17T02:52:22.702Z,7.82
2023-05-17T02:55:25.261Z,8.15
2023-05-17T02:58:28.006Z,7.90
2023-05-17T03:01:30.959Z,9.48
2023-05-17T03:04:34.148Z,10.43
2023-05-17T03:07:37.147Z,8.43
2023-05-17T03:10:39.588Z,10.73
2023-05-17T03:13:43.728Z,23.55
2023-05-17T03:16:47.656Z,17.35
2023-05-17T03:19:50.296Z,13.52
2023-05-17T03:22:52.887Z,12.93
2023-05-17T03:25:55.482Z,12.10
2023-05-17T03:28:58.009Z,12.80
2023-05-17T03:32:01.127Z,13.30
2023-05-17T03:35:03.920Z,12.82
2023-05-17T03:38:06.382Z,11.38
2023-05-17T03:41:09.136Z,12.65
2023-05-17T03:44:11.657Z,13.80
2023-05-17T03:47:14.105Z,12.10
2023-05-17T03:50:16.698Z,12.88
2023-05-17T03:53:19.088Z,13.35
2023-05-17T03:56:21.545Z,13.77
2023-05-17T03:59:23.971Z,11.70
2023-05-17T04:02:26.573Z,11.68
2023-05-17T04:05:29.313Z,12.02
2023-05-17T04:08:31.979Z,11.80
2023-05-17T04:11:34.780Z,9.98
2023-05-17T04:14:38.796Z,9.15
2023-05-17T04:17:41.397Z,7.30
2023-05-17T04:20:44.545Z,7.82
2023-05-17T04:23:46.952Z,7.30
2023-05-17T04:29:56.553Z,6.57
2023-05-17T04:32:59.224Z,7.55
2023-05-17T04:36:02.781Z,7.55
2023-05-17T04:39:07.366Z,7.60
2023-05-17T04:42:10.223Z,6.70
2023-05-17T04:45:21.869Z,7.10
2023-05-17T04:48:26.482Z,6.30
2023-05-17T04:51:32.904Z,5.57
2023-05-17T04:54:36.818Z,5.40
2023-05-17T04:57:40.043Z,5.22
2023-05-17T05:00:43.848Z,4.75
2023-05-17T05:03:47.168Z,3.95
2023-05-17T05:06:49.736Z,3.85
2023-05-17T05:09:53.277Z,3.67
2023-05-17T05:12:58.343Z,3.60
2023-05-17T05:19:05.149Z,3.95
2023-05-17T05:22:08.425Z,3.70
2023-05-17T05:28:15.193Z,4.35
2023-05-17T05:31:18.238Z,4.45
2023-05-17T05:34:28.593Z,3.85
2023-05-17T05:37:31.296Z,3.78
2023-05-17T05:40:33.911Z,3.70
2023-05-17T05:43:37.991Z,3.00
2023-05-17T05:46:41.885Z,3.50
2023-05-17T05:49:44.595Z,3.22
2023-05-17T05:52:47.648Z,3.38
2023-05-17T05:55:50.479Z,3.22
2023-05-17T05:58:53.842Z,3.10
2023-05-17T06:01:56.421Z,3.85
2023-05-17T06:04:58.808Z,3.53
2023-05-17T06:08:01.307Z,3.35
2023-05-17T06:11:04.015Z,3.80
2023-05-17T06:14:06.356Z,3.85
2023-05-17T06:17:08.779Z,3.13
2023-05-17T06:20:12.015Z,3.15
2023-05-17T06:23:14.758Z,3.20
2023-05-17T06:26:17.268Z,2.63
2023-05-17T06:29:19.641Z,3.35
2023-05-17T06:32:22.114Z,3.75
2023-05-17T06:35:24.531Z,2.65
2023-05-17T06:38:27.050Z,2.65
2023-05-17T06:41:29.508Z,2.67
2023-05-17T06:44:32.186Z,2.83
2023-05-17T06:47:34.689Z,2.80
2023-05-17T06:50:37.190Z,3.08
2023-05-17T06:53:39.723Z,2.88
2023-05-17T06:56:43.494Z,3.72
2023-05-17T06:59:45.807Z,2.80
2023-05-17T07:02:48.535Z,3.60
2023-05-17T07:05:50.939Z,3.50
2023-05-17T07:08:53.580Z,3.20
2023-05-17T07:11:56.220Z,3.25
2023-05-17T07:14:58.634Z,3.17
2023-05-17T07:18:01.282Z,3.95
2023-05-17T07:21:03.797Z,3.20
2023-05-17T07:24:06.383Z,3.40
2023-05-17T07:27:08.729Z,3.45
2023-05-17T07:30:11.918Z,3.13
2023-05-17T07:33:14.385Z,3.05
2023-05-17T07:36:19.614Z,4.38
2023-05-17T07:39:21.984Z,3.13
2023-05-17T07:42:24.413Z,3.15
2023-05-17T07:45:26.928Z,3.25
2023-05-17T07:48:29.731Z,3.50
2023-05-17T07:51:32.238Z,3.55
2023-05-17T07:54:34.947Z,3.15
2023-05-17T07:57:37.474Z,3.38
2023-05-17T08:00:41.269Z,3.65
2023-05-17T08:03:48.272Z,3.58
2023-05-17T08:06:51.193Z,3.35
2023-05-17T08:09:53.759Z,3.35
2023-05-17T08:12:56.320Z,3.53
2023-05-17T08:16:12.898Z,3.35
2023-05-17T08:19:17.579Z,3.42
2023-05-17T08:22:20.174Z,3.90
2023-05-17T08:25:22.656Z,3.47
2023-05-17T08:28:25.151Z,3.60
2023-05-17T08:31:27.597Z,3.90
2023-05-17T08:34:30.043Z,3.47
2023-05-17T08:37:32.982Z,3.65
2023-05-17T08:40:35.551Z,4.00
2023-05-17T08:43:38.085Z,3.42
2023-05-17T08:46:41.576Z,3.88
2023-05-17T08:49:46.368Z,3.47
2023-05-17T08:52:51.439Z,3.65
2023-05-17T08:56:04.141Z,3.17
2023-05-17T08:59:07.265Z,3.25
2023-05-17T09:02:11.324Z,3.10
2023-05-17T09:05:14.504Z,3.45
2023-05-17T09:08:18.030Z,3.05
2023-05-17T09:11:27.044Z,2.67
2023-05-17T09:14:35.893Z,3.05
2023-05-17T09:17:38.550Z,3.25
2023-05-17T09:20:42.170Z,3.20
2023-05-17T09:23:54.254Z,2.83
2023-05-17T09:27:05.943Z,3.35
2023-05-17T09:30:11.767Z,2.53
2023-05-17T09:33:16.645Z,2.90
2023-05-17T09:36:23.190Z,3.22
2023-05-17T09:39:26.110Z,3.33
2023-05-17T09:42:28.613Z,3.25
2023-05-17T09:45:36.385Z,3.65
2023-05-17T09:48:39.609Z,3.97
2023-05-17T09:51:44.518Z,3.30
2023-05-17T09:54:54.152Z,4.32
2023-05-17T09:58:03.965Z,3.53
2023-05-17T10:01:08.750Z,4.25
2023-05-17T10:04:14.993Z,3.75
2023-05-17T10:07:21.592Z,3.95
2023-05-17T10:10:24.287Z,3.28
2023-05-17T10:13:33.704Z,3.10
2023-05-17T10:16:36.859Z,3.97
2023-05-17T10:19:39.813Z,3.67
2023-05-17T10:22:42.609Z,4.55
2023-05-17T10:25:45.703Z,3.60
2023-05-17T10:28:51.300Z,4.32
2023-05-17T10:31:53.786Z,3.72
2023-05-17T10:35:06.527Z,3.50
2023-05-17T10:38:13.770Z,3.78
2023-05-17T10:41:17.633Z,3.25
2023-05-17T10:44:20.291Z,3.85
2023-05-17T10:47:23.327Z,4.05
2023-05-17T10:50:27.624Z,4.57
2023-05-17T10:56:33.295Z,4.10
2023-05-17T10:59:36.070Z,4.28
2023-05-17T11:02:41.350Z,4.07
2023-05-17T11:05:46.092Z,3.97
2023-05-17T11:09:16.890Z,3.80
2023-05-17T11:12:31.421Z,3.80
2023-05-17T11:15:36.371Z,3.30
2023-05-17T11:18:56.311Z,3.40
2023-05-17T11:21:59.915Z,4.32
2023-05-17T11:25:02.548Z,3.90
2023-05-17T11:28:20.618Z,3.50
2023-05-17T11:31:31.197Z,3.50
2023-05-17T11:34:34.749Z,3.70
2023-05-17T11:37:37.283Z,2.78
2023-05-17T11:40:40.133Z,3.35
2023-05-17T11:43:46.385Z,3.90
2023-05-17T11:46:48.814Z,3.60
2023-05-17T11:49:54.321Z,4.20
2023-05-17T11:53:00.371Z,4.65
2023-05-17T11:56:04.843Z,3.85
2023-05-17T12:02:10.209Z,3.72
2023-05-17T12:05:12.872Z,3.97
2023-05-17T12:08:19.332Z,3.47
2023-05-17T12:11:22.190Z,4.65
2023-05-17T12:14:24.904Z,4.00
2023-05-17T12:17:33.535Z,3.20
2023-05-17T12:20:38.160Z,3.40
2023-05-17T12:23:46.917Z,4.25
2023-05-17T12:26:50.798Z,3.80
2023-05-17T12:29:54.327Z,3.13
2023-05-17T12:32:56.889Z,3.37
2023-05-17T12:35:59.731Z,3.78
2023-05-17T12:39:02.558Z,3.65
2023-05-17T12:42:05.125Z,3.55
2023-05-17T12:45:08.000Z,3.60
2023-05-17T12:48:10.593Z,3.10
2023-05-17T12:51:16.625Z,3.15
2023-05-17T12:54:24.825Z,3.42
2023-05-17T12:57:27.323Z,2.85
2023-05-17T13:00:29.917Z,3.20
2023-05-17T13:03:32.816Z,2.72
2023-05-17T13:06:51.759Z,2.65
2023-05-17T13:09:54.203Z,2.88
2023-05-17T13:12:58.645Z,2.95
2023-05-17T13:19:03.901Z,2.58
2023-05-17T13:22:07.210Z,2.80
2023-05-17T13:25:09.892Z,2.25
2023-05-17T13:28:12.322Z,2.95
2023-05-17T13:31:14.715Z,2.33
2023-05-17T13:34:17.113Z,2.22
2023-05-17T13:37:21.247Z,2.60
2023-05-17T13:40:23.845Z,2.78
2023-05-17T13:43:26.211Z,2.13
2023-05-17T13:46:28.603Z,2.40
2023-05-17T13:49:31.184Z,2.03
2023-05-17T13:52:33.760Z,2.10
2023-05-17T13:55:36.131Z,1.70
2023-05-17T13:58:39.259Z,2.30
2023-05-17T14:01:42.135Z,2.17
2023-05-17T14:04:44.674Z,2.05
2023-05-17T14:07:47.287Z,2.30
2023-05-17T14:10:49.802Z,1.70
2023-05-17T14:13:52.191Z,2.40
2023-05-17T14:16:55.458Z,1.85
2023-05-17T14:19:57.961Z,1.70
2023-05-17T14:23:01.186Z,2.10
2023-05-17T14:26:07.280Z,1.60
2023-05-17T14:29:09.869Z,2.15
2023-05-17T14:32:14.179Z,2.17
2023-05-17T14:38:23.207Z,2.22
2023-05-17T14:41:25.707Z,2.08
2023-05-17T14:44:28.145Z,2.83
2023-05-17T14:47:30.700Z,2.20
2023-05-17T14:50:34.696Z,1.88
2023-05-17T14:53:37.812Z,1.80
2023-05-17T14:56:40.195Z,4.18
2023-05-17T14:59:45.343Z,2.15
2023-05-17T15:02:48.057Z,2.72
2023-05-17T15:06:02.056Z,2.75
2023-05-17T15:09:05.824Z,3.90
2023-05-17T15:19:24.959Z,1.90
2023-05-17T15:22:27.377Z,2.97
2023-05-17T15:25:30.323Z,3.33
2023-05-17T15:28:32.969Z,2.55
2023-05-17T15:31:35.292Z,2.55
2023-05-17T15:34:37.820Z,2.40
2023-05-17T15:37:40.273Z,2.90
2023-05-17T15:40:43.717Z,2.60
2023-05-17T15:43:46.114Z,2.70
2023-05-17T15:46:48.879Z,2.45
2023-05-17T15:49:51.283Z,2.50
2023-05-17T15:52:54.096Z,2.65
2023-05-17T15:55:56.993Z,2.55
2023-05-17T15:59:02.443Z,3.30
2023-05-17T16:02:05.353Z,3.20
2023-05-17T16:05:08.627Z,2.90
2023-05-17T16:08:12.410Z,2.30
2023-05-17T16:11:14.814Z,2.35
2023-05-17T16:14:18.096Z,2.60
2023-05-17T16:17:20.653Z,2.85
2023-05-17T16:20:23.037Z,2.80
2023-05-17T16:23:26.975Z,2.55
2023-05-17T16:26:30.103Z,2.25
2023-05-17T16:29:33.388Z,2.80
2023-05-17T16:32:36.023Z,2.55
2023-05-17T16:35:38.644Z,2.70
2023-05-17T16:38:41.359Z,2.88
2023-05-17T16:41:43.796Z,3.53
2023-05-17T16:44:46.260Z,7.15
2023-05-17T16:47:48.726Z,3.45
2023-05-17T16:50:51.538Z,3.30
2023-05-17T16:56:57.920Z,4.13
2023-05-17T17:00:03.018Z,5.13
2023-05-17T17:03:09.008Z,2.35
2023-05-17T17:06:12.091Z,3.22
2023-05-17T17:09:15.209Z,9.00
2023-05-17T17:12:24.809Z,17.15
2023-05-17T17:15:28.987Z,12.25
2023-05-17T17:18:31.564Z,5.72
2023-05-17T17:21:36.668Z,3.35
2023-05-17T17:24:39.782Z,2.53
2023-05-17T17:27:42.301Z,3.60
2023-05-17T17:30:44.686Z,4.65
2023-05-17T17:33:47.180Z,13.88
2023-05-17T17:36:49.622Z,5.03
2023-05-17T17:39:52.055Z,2.58
2023-05-17T17:42:54.496Z,2.10
2023-05-17T17:45:56.902Z,2.28
2023-05-17T17:48:59.264Z,3.90
2023-05-17T17:52:01.820Z,5.88
2023-05-17T17:55:04.466Z,2.60
2023-05-17T17:58:07.185Z,2.08
2023-05-17T18:01:09.605Z,2.53
2023-05-17T18:04:13.732Z,2.33
